Time;durP1;ratioP1;P1;durP2;ratioP2;P2;SDS_P1;SDS_P2;PMS_P1;PMS_P2;Temp;Humidity;BMP_temperature;BMP_pressure;BME280_temperature;BME280_humidity;BME280_pressure;Samples;Min_cycle;Max_cycle;Signal;HPM_P1;HPM_P2
2021/12/05 00:24:01;;;;;;;;;;;;;;;2.57;92.27;95244.84;4994604;28;19985;-81
2021/12/05 00:26:28;;;;;;;;;;;;;;;2.57;91.60;95257.00;4985416;28;19976;-81
2021/12/05 00:31:54;;;;;;;;;;;;;;;2.52;91.14;95249.84;4985326;28;19966;-81
2021/12/05 00:47:47;;;;;;;;;;;;;;;2.57;92.15;95268.16;4981938;28;19958;-81
2021/12/05 01:11:27;;;;;;;;;;;;;;;2.50;92.20;95259.59;5016882;28;20406;-81
2021/12/05 01:16:30;;;;;;;;;;;;;;;2.49;91.93;95257.19;5023795;28;19964;-81
2021/12/05 01:18:56;;;;;;;;;;;;;;;2.49;92.01;95265.75;5025751;28;19968;-81
2021/12/05 01:21:24;;;;;;;;;;;;;;;2.46;91.30;95260.16;5029051;28;19949;-81
2021/12/05 01:23:59;;;;;;;;;;;;;;;2.44;91.73;95263.75;5026595;28;19952;-81
2021/12/05 01:26:36;;;;;;;;;;;;;;;2.43;92.05;95263.94;4995173;28;19946;-81
2021/12/05 01:29:22;;;;;;;;;;;;;;;2.43;92.50;95269.91;5015182;28;19952;-81
2021/12/05 01:31:59;;;;;;;;;;;;;;;2.46;91.91;95271.31;5010420;28;19969;-81
2021/12/05 01:37:04;;;;;;;;;;;;;;;2.46;91.78;95286.03;5006535;28;20408;-81
2021/12/05 02:30:51;;;;;;;;;;;;;;;2.23;91.39;95251.75;5003766;28;19948;-81
2021/12/05 02:33:42;;;;;;;;;;;;;;;2.24;92.09;95255.13;5020186;28;19987;-82
2021/12/05 02:36:50;;;;;;;;;;;;;;;2.24;92.34;95245.56;5009199;28;19961;-81
2021/12/05 02:41:23;;;;;;;;;;;;;;;2.24;92.24;95235.22;5008116;28;20336;-81
2021/12/05 02:44:01;;;;;;;;;;;;;;;2.22;91.90;95229.44;5022768;28;20440;-81
2021/12/05 02:46:27;;;;;;;;;;;;;;;2.20;91.57;95234.03;5000147;28;20339;-81
2021/12/05 02:48:57;;;;;;;;;;;;;;;2.18;91.71;95236.03;5024059;28;19946;-81
2021/12/05 02:51:25;;;;;;;;;;;;;;;2.19;92.25;95231.66;5028113;28;19951;-81
2021/12/05 02:54:02;;;;;;;;;;;;;;;2.22;92.65;95233.84;5023229;28;19973;-81
2021/12/05 02:56:31;;;;;;;;;;;;;;;2.24;92.39;95227.47;5013881;28;19951;-80
2021/12/05 02:59:06;;;;;;;;;;;;;;;2.26;92.53;95221.31;5012033;28;20298;-81
2021/12/05 03:01:41;;;;;;;;;;;;;;;2.28;92.42;95227.09;5022414;28;19964;-81
2021/12/05 03:04:08;;;;;;;;;;;;;;;2.30;91.80;95228.50;5025649;28;19954;-81
2021/12/05 03:06:35;;;;;;;;;;;;;;;2.27;91.59;95222.91;5028587;28;19991;-81
2021/12/05 03:09:06;;;;;;;;;;;;;;;2.25;91.47;95225.72;5025026;28;19960;-81
2021/12/05 03:11:33;;;;;;;;;;;;;;;2.24;91.27;95221.50;5024619;28;19950;-81
2021/12/05 03:13:59;;;;;;;;;;;;;;;2.22;91.33;95231.25;5014074;28;19973;-81
2021/12/05 03:16:26;;;;;;;;;;;;;;;2.22;91.72;95218.31;5025609;28;20330;-81
2021/12/05 03:18:52;;;;;;;;;;;;;;;2.22;91.45;95215.72;5004500;28;19956;-80
2021/12/05 03:21:18;;;;;;;;;;;;;;;2.19;91.12;95219.50;5016048;28;19962;-81
2021/12/05 03:23:46;;;;;;;;;;;;;;;2.18;91.11;95217.94;5007400;28;19955;-81
2021/12/05 03:26:14;;;;;;;;;;;;;;;2.14;91.05;95215.91;5020507;28;20341;-81
2021/12/05 03:28:42;;;;;;;;;;;;;;;2.13;91.65;95217.72;5027406;28;20440;-81
2021/12/05 03:31:09;;;;;;;;;;;;;;;2.14;91.78;95211.56;5009501;28;19975;-80
2021/12/05 03:33:38;;;;;;;;;;;;;;;2.15;92.04;95215.72;5023672;28;19975;-82
2021/12/05 03:36:05;;;;;;;;;;;;;;;2.16;91.65;95213.94;5001901;28;19961;-81
2021/12/05 03:38:32;;;;;;;;;;;;;;;2.14;91.55;95214.16;5023930;28;19965;-82
2021/12/05 03:40:57;;;;;;;;;;;;;;;2.08;91.30;95203.75;5021955;28;19983;-81
2021/12/05 03:43:23;;;;;;;;;;;;;;;1.98;91.49;95202.34;5023594;28;19950;-81
2021/12/05 03:45:52;;;;;;;;;;;;;;;1.93;91.87;95199.56;5028078;28;19957;-82
2021/12/05 03:48:18;;;;;;;;;;;;;;;1.91;92.03;95200.72;4993295;28;19953;-81
2021/12/05 03:50:45;;;;;;;;;;;;;;;1.91;92.33;95200.72;5005204;28;19962;-82
2021/12/05 03:53:12;;;;;;;;;;;;;;;1.92;92.00;95200.53;5012425;28;19975;-81
2021/12/05 03:55:39;;;;;;;;;;;;;;;1.92;92.18;95192.00;5026677;28;20297;-81
2021/12/05 03:58:06;;;;;;;;;;;;;;;1.91;91.66;95198.97;5014116;28;20289;-81
2021/12/05 04:00:35;;;;;;;;;;;;;;;1.91;92.11;95198.97;5030781;28;19960;-82
2021/12/05 04:03:02;;;;;;;;;;;;;;;1.92;91.82;95200.53;5010894;28;19947;-81
2021/12/05 04:05:37;;;;;;;;;;;;;;;1.91;91.66;95196.38;5008053;28;19963;-81
2021/12/05 04:08:09;;;;;;;;;;;;;;;1.90;91.44;95197.34;5006123;28;19976;-81
2021/12/05 04:10:37;;;;;;;;;;;;;;;1.89;91.85;95207.88;5009843;28;19959;-81
2021/12/05 04:13:04;;;;;;;;;;;;;;;1.89;91.92;95202.72;5031798;28;19973;-81
2021/12/05 04:15:30;;;;;;;;;;;;;;;1.85;90.46;95204.91;5010255;28;19947;-82
2021/12/05 04:17:56;;;;;;;;;;;;;;;1.80;91.57;95202.88;5008215;28;19961;-82
2021/12/05 04:20:23;;;;;;;;;;;;;;;1.78;91.83;95206.66;5022380;28;19959;-82
2021/12/05 04:22:50;;;;;;;;;;;;;;;1.78;90.99;95204.84;5019057;28;19952;-81
2021/12/05 04:25:17;;;;;;;;;;;;;;;1.75;91.96;95210.44;5006971;28;19957;-81
2021/12/05 04:27:45;;;;;;;;;;;;;;;1.75;92.37;95207.84;5016185;28;20294;-82
2021/12/05 04:30:12;;;;;;;;;;;;;;;1.72;92.04;95207.41;5006054;28;19982;-82
2021/12/05 04:32:37;;;;;;;;;;;;;;;1.69;92.53;95208.63;5029887;28;20317;-82
2021/12/05 04:35:04;;;;;;;;;;;;;;;1.71;93.23;95216.97;5023575;28;19993;-81
2021/12/05 04:37:30;;;;;;;;;;;;;;;1.69;92.90;95218.94;5026300;28;19954;-82
2021/12/05 04:39:56;;;;;;;;;;;;;;;1.67;93.43;95215.75;5032554;28;19955;-82
2021/12/05 04:42:23;;;;;;;;;;;;;;;1.68;93.13;95227.72;5027179;28;19954;-82
2021/12/05 04:44:49;;;;;;;;;;;;;;;1.71;93.33;95221.34;4998934;28;19959;-82
2021/12/05 04:47:15;;;;;;;;;;;;;;;1.73;93.20;95217.56;5024273;28;20420;-82
2021/12/05 04:49:41;;;;;;;;;;;;;;;1.75;92.96;95220.75;5012629;28;19956;-82
2021/12/05 04:52:08;;;;;;;;;;;;;;;1.74;92.42;95202.84;5028958;28;19953;-82
2021/12/05 04:54:35;;;;;;;;;;;;;;;1.67;92.27;95223.50;5023352;28;19981;-82
2021/12/05 04:57:01;;;;;;;;;;;;;;;1.62;92.77;95225.88;5005231;28;19958;-82
2021/12/05 04:59:28;;;;;;;;;;;;;;;1.65;93.16;95233.25;5031639;28;19956;-82
2021/12/05 05:01:57;;;;;;;;;;;;;;;1.64;93.54;95229.06;5011143;28;19961;-81
2021/12/05 05:04:27;;;;;;;;;;;;;;;1.62;93.43;95229.25;5007220;28;19948;-82
2021/12/05 05:06:55;;;;;;;;;;;;;;;1.53;93.33;95225.22;5023507;28;19980;-82
2021/12/05 05:09:21;;;;;;;;;;;;;;;1.47;93.48;95222.59;5020394;28;20359;-82
2021/12/05 05:11:47;;;;;;;;;;;;;;;1.39;93.33;95218.41;5033689;28;19960;-82
2021/12/05 05:14:14;;;;;;;;;;;;;;;1.33;93.79;95219.97;5006714;28;19964;-82
2021/12/05 05:16:41;;;;;;;;;;;;;;;1.31;94.00;95215.97;5026670;28;19957;-82
2021/12/05 05:19:08;;;;;;;;;;;;;;;1.25;93.90;95207.19;5030144;28;20402;-82
2021/12/05 05:47:55;;;;;;;;;;;;;;;1.23;93.62;95218.72;5020549;28;19964;-81
2021/12/05 05:50:21;;;;;;;;;;;;;;;1.19;94.29;95226.81;4978488;28;19957;-81
2021/12/05 05:52:48;;;;;;;;;;;;;;;1.20;93.89;95230.22;5023393;28;19952;-82
2021/12/05 05:55:14;;;;;;;;;;;;;;;1.21;93.98;95226.63;5011362;28;19956;-81
2021/12/05 05:57:46;;;;;;;;;;;;;;;1.22;94.23;95233.41;5008043;28;19959;-81
2021/12/05 06:00:29;;;;;;;;;;;;;;;1.27;94.63;95227.69;5025905;28;19972;-81
2021/12/05 06:05:40;;;;;;;;;;;;;;;1.27;94.06;95225.09;5024309;28;19962;-80
2021/12/05 06:08:06;;;;;;;;;;;;;;;1.24;94.20;95226.28;5013663;28;20462;-81
2021/12/05 06:10:32;;;;;;;;;;;;;;;1.24;94.44;95215.94;5024563;28;19973;-82
2021/12/05 06:12:59;;;;;;;;;;;;;;;1.24;94.47;95218.53;5025133;28;20320;-81
2021/12/05 06:15:26;;;;;;;;;;;;;;;1.20;94.63;95220.69;5025135;28;19955;-81
2021/12/05 06:17:55;;;;;;;;;;;;;;;1.18;94.64;95227.81;5007179;28;19954;-81
2021/12/05 06:20:25;;;;;;;;;;;;;;;1.13;94.85;95219.03;5006447;28;20312;-81
2021/12/05 06:22:52;;;;;;;;;;;;;;;1.06;94.47;95226.75;5033307;28;19954;-81
2021/12/05 06:25:20;;;;;;;;;;;;;;;1.03;94.79;95227.13;5007205;28;19950;-81
2021/12/05 06:27:47;;;;;;;;;;;;;;;1.06;95.01;95220.78;5009913;28;20310;-82
2021/12/05 06:30:21;;;;;;;;;;;;;;;1.11;95.17;95226.97;5022278;28;19983;-82
2021/12/05 06:38:30;;;;;;;;;;;;;;;1.09;95.06;95234.13;4997902;28;19962;-81
2021/12/05 06:46:11;;;;;;;;;;;;;;;0.97;95.31;95246.75;5023317;28;20319;-81
2021/12/05 06:48:37;;;;;;;;;;;;;;;0.90;96.48;95243.28;5031259;28;19963;-81
2021/12/05 06:51:04;;;;;;;;;;;;;;;0.89;96.89;95241.72;5006990;28;20335;-81
2021/12/05 06:53:30;;;;;;;;;;;;;;;0.96;96.73;95239.19;5002793;28;19966;-81
2021/12/05 06:55:56;;;;;;;;;;;;;;;1.00;96.43;95241.19;5008817;28;20066;-81
2021/12/05 06:58:22;;;;;;;;;;;;;;;1.05;96.23;95239.84;5007596;28;19945;-81
2021/12/05 07:00:48;;;;;;;;;;;;;;;1.09;95.87;95239.28;5022264;28;19979;-82
2021/12/05 07:03:14;;;;;;;;;;;;;;;1.13;95.75;95242.28;5006666;28;20422;-81
2021/12/05 07:08:43;;;;;;;;;;;;;;;1.24;94.92;95236.59;4976967;28;19962;-82
2021/12/05 07:11:34;;;;;;;;;;;;;;;1.27;94.58;95233.63;4976956;28;19961;-81
2021/12/05 07:16:45;;;;;;;;;;;;;;;1.33;93.88;95232.88;5030783;28;20387;-81
2021/12/05 07:19:42;;;;;;;;;;;;;;;1.35;93.70;95233.50;5008221;28;19947;-81
2021/12/05 07:22:12;;;;;;;;;;;;;;;1.38;93.60;95234.88;5022439;28;19951;-80
2021/12/05 07:40:19;;;;;;;;;;;;;;;1.37;93.05;95230.72;5022579;28;20398;-81
2021/12/05 07:40:52;;;;;;;;;;;;;;;1.42;91.95;95234.31;5020992;28;19960;-79
2021/12/05 07:43:19;;;;;;;;;;;;;;;1.43;91.84;95237.72;5005128;28;19961;-80
2021/12/05 07:45:51;;;;;;;;;;;;;;;1.47;91.84;95238.09;5028558;28;19962;-79
2021/12/05 07:48:21;;;;;;;;;;;;;;;1.52;91.66;95235.78;5028726;28;19953;-80
2021/12/05 07:50:55;;;;;;;;;;;;;;;1.55;91.10;95238.75;5018549;28;19954;-79
2021/12/05 07:53:38;;;;;;;;;;;;;;;1.55;91.48;95249.09;5024361;28;19946;-80
2021/12/05 07:56:12;;;;;;;;;;;;;;;1.68;91.60;95243.22;5007108;28;19951;-80
2021/12/05 08:14:37;;;;;;;;;;;;;;;1.76;91.69;95247.41;5024809;28;19988;-80
2021/12/05 08:17:05;;;;;;;;;;;;;;;1.74;91.53;95244.22;5009981;28;20328;-80
2021/12/05 08:19:31;;;;;;;;;;;;;;;1.72;91.33;95239.25;5017754;28;19949;-81
2021/12/05 08:21:57;;;;;;;;;;;;;;;1.69;91.23;95237.03;5023494;28;20297;-81
2021/12/05 08:24:30;;;;;;;;;;;;;;;1.64;91.39;95239.41;5025395;28;19958;-81
2021/12/05 08:26:56;;;;;;;;;;;;;;;1.60;91.85;95243.38;5020740;28;19959;-81
2021/12/05 08:29:32;;;;;;;;;;;;;;;1.56;91.95;95245.53;5015598;28;19952;-81
2021/12/05 08:32:12;;;;;;;;;;;;;;;1.64;92.87;95252.34;5021794;28;19958;-82
2021/12/05 08:34:55;;;;;;;;;;;;;;;1.70;91.90;95243.81;5012471;28;20434;-82
2021/12/05 08:43:04;;;;;;;;;;;;;;;1.73;91.79;95252.97;5027248;28;19952;-82
2021/12/05 09:27:07;;;;;;;;;;;;;;;4.64;82.80;95231.31;5013457;28;19956;-82
2021/12/05 09:52:57;;;;;;;;;;;;;;;3.58;83.88;95269.72;5004419;28;19964;-81
2021/12/05 10:02:38;;;;;;;;;;;;;;;3.55;84.80;95264.13;5029014;28;20380;-81
2021/12/05 10:08:23;;;;;;;;;;;;;;;3.73;86.18;95255.72;5035195;28;19986;-81
2021/12/05 10:26:54;;;;;;;;;;;;;;;4.05;83.34;95230.66;5023851;28;19957;-81
2021/12/05 10:35:38;;;;;;;;;;;;;;;4.35;83.31;95215.34;5004370;28;19958;-80
2021/12/05 10:37:53;;;;;;;;;;;;;;;4.45;81.55;95222.66;5034256;28;19958;-81
2021/12/05 10:40:33;;;;;;;;;;;;;;;4.58;81.17;95230.38;5018829;28;19959;-81
2021/12/05 10:43:00;;;;;;;;;;;;;;;4.61;82.24;95222.16;5026954;28;19952;-80
2021/12/05 10:45:34;;;;;;;;;;;;;;;4.58;82.31;95219.22;5031209;28;19958;-81
2021/12/05 10:48:05;;;;;;;;;;;;;;;4.66;82.36;95211.16;5006633;28;19956;-81
2021/12/05 10:50:37;;;;;;;;;;;;;;;4.87;81.98;95210.81;5026938;28;19965;-81
2021/12/05 10:53:17;;;;;;;;;;;;;;;5.12;81.44;95214.38;5027656;28;19958;-81
2021/12/05 10:55:43;;;;;;;;;;;;;;;5.23;81.65;95214.50;5027739;28;20443;-80
2021/12/05 10:58:08;;;;;;;;;;;;;;;5.17;78.56;95207.53;5008806;28;19951;-80
2021/12/05 11:00:34;;;;;;;;;;;;;;;5.00;80.45;95206.50;5020693;28;19953;-80
2021/12/05 11:03:17;;;;;;;;;;;;;;;4.88;79.09;95206.41;5023618;28;20330;-80
2021/12/05 11:05:43;;;;;;;;;;;;;;;4.94;78.89;95205.53;5024070;28;19958;-80
2021/12/05 11:08:28;;;;;;;;;;;;;;;5.06;78.89;95203.03;5031377;28;20005;-80
2021/12/05 11:11:08;;;;;;;;;;;;;;;5.18;77.87;95203.94;5025208;28;19989;-80
2021/12/05 11:13:35;;;;;;;;;;;;;;;5.15;78.84;95204.38;5019260;28;19980;-80
2021/12/05 11:16:01;;;;;;;;;;;;;;;4.91;76.88;95207.78;5022630;28;19972;-80
2021/12/05 11:18:39;;;;;;;;;;;;;;;4.77;79.58;95202.69;5007788;28;19988;-80
2021/12/05 11:21:25;;;;;;;;;;;;;;;4.57;76.10;95199.44;5025841;28;19979;-80
2021/12/05 11:24:10;;;;;;;;;;;;;;;4.43;79.17;95209.91;5025669;28;19964;-80
2021/12/05 11:26:37;;;;;;;;;;;;;;;4.34;80.11;95211.16;5030960;28;19962;-81
2021/12/05 11:29:03;;;;;;;;;;;;;;;4.35;80.54;95212.75;5023798;28;19960;-81
2021/12/05 11:31:31;;;;;;;;;;;;;;;4.35;79.80;95207.56;5023368;28;19946;-80
2021/12/05 11:33:57;;;;;;;;;;;;;;;4.50;79.86;95203.88;5024626;28;19950;-80
2021/12/05 11:36:24;;;;;;;;;;;;;;;4.60;80.16;95202.41;5007173;28;20331;-81
2021/12/05 11:38:50;;;;;;;;;;;;;;;4.61;80.59;95200.59;5024223;28;19970;-80
2021/12/05 11:41:20;;;;;;;;;;;;;;;4.66;82.11;95198.97;5016012;28;19958;-80
2021/12/05 11:43:46;;;;;;;;;;;;;;;4.73;79.87;95203.31;5031754;28;19966;-81
2021/12/05 11:46:17;;;;;;;;;;;;;;;4.72;81.25;95202.50;5018976;28;19948;-80
2021/12/05 11:48:50;;;;;;;;;;;;;;;4.80;79.30;95204.06;5024057;28;20430;-81
2021/12/05 11:51:31;;;;;;;;;;;;;;;4.81;79.86;95197.88;5025408;28;19967;-80
2021/12/05 11:53:59;;;;;;;;;;;;;;;4.93;80.66;95196.16;5024391;28;19961;-80
2021/12/05 11:56:31;;;;;;;;;;;;;;;5.05;80.32;95194.44;5017686;28;19957;-81
2021/12/05 11:59:04;;;;;;;;;;;;;;;5.23;79.40;95177.31;5025710;28;20401;-80
2021/12/05 12:01:36;;;;;;;;;;;;;;;5.35;80.07;95188.56;5028676;28;19960;-80
2021/12/05 12:04:03;;;;;;;;;;;;;;;5.42;78.76;95180.72;5022536;28;19948;-81
2021/12/05 12:06:29;;;;;;;;;;;;;;;5.41;77.91;95179.13;5028539;28;19969;-80
2021/12/05 12:08:55;;;;;;;;;;;;;;;5.45;78.57;95180.28;5026865;28;19972;-80
2021/12/05 12:11:22;;;;;;;;;;;;;;;5.46;77.48;95190.47;5005568;28;19969;-80
2021/12/05 12:13:50;;;;;;;;;;;;;;;5.51;77.23;95186.44;5024239;28;19960;-80
2021/12/05 12:16:16;;;;;;;;;;;;;;;5.56;75.82;95183.94;5032110;28;19977;-81
2021/12/05 12:18:45;;;;;;;;;;;;;;;5.57;74.20;95181.16;5011453;28;19956;-80
2021/12/05 12:21:18;;;;;;;;;;;;;;;5.53;73.58;95176.59;5031424;28;19975;-81
2021/12/05 12:23:45;;;;;;;;;;;;;;;5.43;74.51;95179.69;5019832;28;19956;-80
2021/12/05 12:26:11;;;;;;;;;;;;;;;5.38;73.39;95166.56;5014831;28;19969;-80
2021/12/05 12:28:37;;;;;;;;;;;;;;;5.37;74.43;95173.53;5036015;28;19960;-80
2021/12/05 12:31:06;;;;;;;;;;;;;;;5.50;76.25;95175.22;5023275;28;19959;-81
2021/12/05 12:33:35;;;;;;;;;;;;;;;5.62;74.24;95160.47;5012107;28;19956;-80
2021/12/05 12:36:01;;;;;;;;;;;;;;;5.77;74.64;95162.69;4994750;28;19969;-80
2021/12/05 12:38:29;;;;;;;;;;;;;;;5.88;70.87;95153.38;5024287;28;19977;-80
2021/12/05 12:41:00;;;;;;;;;;;;;;;5.99;74.23;95173.47;5003854;28;19954;-80
2021/12/05 12:43:35;;;;;;;;;;;;;;;6.02;74.80;95167.03;5012097;28;19963;-80
2021/12/05 12:46:21;;;;;;;;;;;;;;;6.02;71.38;95159.22;4995274;28;19955;-80
2021/12/05 12:48:50;;;;;;;;;;;;;;;6.03;71.94;95166.81;5011453;28;20432;-80
2021/12/05 12:51:42;;;;;;;;;;;;;;;6.07;72.20;95167.97;5028392;28;19959;-80
2021/12/05 12:54:11;;;;;;;;;;;;;;;6.03;73.40;95176.44;5006732;28;19955;-79
2021/12/05 12:56:39;;;;;;;;;;;;;;;6.01;71.50;95165.44;5002087;28;19956;-80
2021/12/05 12:59:08;;;;;;;;;;;;;;;5.93;72.67;95174.31;4992832;28;19967;-80
2021/12/05 13:12:30;;;;;;;;;;;;;;;5.57;71.02;95172.56;5025944;28;19951;-79
2021/12/05 13:15:01;;;;;;;;;;;;;;;5.59;71.77;95176.53;5025603;28;20429;-79
2021/12/05 13:17:43;;;;;;;;;;;;;;;5.63;72.74;95189.91;5026095;28;19959;-80
2021/12/05 13:20:10;;;;;;;;;;;;;;;5.61;72.21;95190.09;5019977;28;20425;-79
2021/12/05 13:22:55;;;;;;;;;;;;;;;5.55;71.92;95192.78;5029411;28;20008;-79
2021/12/05 13:25:21;;;;;;;;;;;;;;;5.51;73.50;95197.63;5022134;28;19944;-79
2021/12/05 13:27:47;;;;;;;;;;;;;;;5.56;73.25;95191.75;5006766;28;20011;-80
2021/12/05 13:30:26;;;;;;;;;;;;;;;5.43;71.86;95182.28;5015738;28;20342;-79
2021/12/05 13:33:13;;;;;;;;;;;;;;;5.31;73.77;95190.00;5032025;28;19978;-79
2021/12/05 13:35:40;;;;;;;;;;;;;;;5.28;74.41;95188.63;5031804;28;19970;-80
2021/12/05 13:38:06;;;;;;;;;;;;;;;5.35;73.95;95192.97;5025949;28;19961;-79
2021/12/05 13:40:33;;;;;;;;;;;;;;;5.42;73.91;95185.91;5020782;28;19974;-79
2021/12/05 13:43:06;;;;;;;;;;;;;;;5.39;73.01;95181.94;5022576;28;19957;-79
2021/12/05 13:45:32;;;;;;;;;;;;;;;5.29;71.95;95186.81;5025044;28;19974;-80
2021/12/05 13:48:00;;;;;;;;;;;;;;;5.00;70.80;95183.91;5018900;28;20372;-79
2021/12/05 13:50:37;;;;;;;;;;;;;;;4.90;74.44;95198.41;4987797;28;19960;-79
2021/12/05 13:53:03;;;;;;;;;;;;;;;4.76;73.76;95201.09;5028995;28;19954;-80
2021/12/05 13:55:29;;;;;;;;;;;;;;;4.67;73.06;95202.38;5013013;28;20026;-79
2021/12/05 13:58:14;;;;;;;;;;;;;;;4.63;75.48;95206.38;5009314;28;19957;-79
2021/12/05 14:00:45;;;;;;;;;;;;;;;4.62;75.75;95212.56;5033203;28;19950;-79
2021/12/05 14:03:14;;;;;;;;;;;;;;;4.53;73.24;95209.44;5005111;28;19978;-80
2021/12/05 14:05:46;;;;;;;;;;;;;;;4.42;75.79;95223.88;5009190;28;20415;-79
2021/12/05 14:08:13;;;;;;;;;;;;;;;4.38;75.54;95230.50;4987942;28;19989;-79
2021/12/05 14:10:43;;;;;;;;;;;;;;;4.29;76.41;95223.19;4990700;28;20437;-80
2021/12/05 14:13:10;;;;;;;;;;;;;;;4.25;76.94;95231.38;4973640;28;19959;-79
2021/12/05 14:15:37;;;;;;;;;;;;;;;4.25;77.72;95228.78;4987115;28;19969;-79
2021/12/05 14:18:02;;;;;;;;;;;;;;;4.23;76.86;95233.38;4988064;28;20405;-79
2021/12/05 14:20:29;;;;;;;;;;;;;;;4.19;76.90;95229.59;4979322;28;19957;-81
2021/12/05 14:22:57;;;;;;;;;;;;;;;4.18;77.85;95238.41;4963293;28;20432;-80
2021/12/05 14:25:24;;;;;;;;;;;;;;;4.21;78.50;95232.78;4983448;28;19964;-79
2021/12/05 14:27:52;;;;;;;;;;;;;;;4.25;77.57;95236.56;4989948;28;19955;-80
2021/12/05 14:30:19;;;;;;;;;;;;;;;4.20;76.99;95235.56;4983218;28;19955;-80
2021/12/05 14:32:47;;;;;;;;;;;;;;;4.15;77.46;95238.00;4980626;28;19969;-80
2021/12/05 14:35:21;;;;;;;;;;;;;;;4.11;78.89;95240.22;4987045;28;19970;-79
2021/12/05 14:37:48;;;;;;;;;;;;;;;4.06;78.64;95240.84;4985017;28;19970;-80
2021/12/05 14:40:16;;;;;;;;;;;;;;;4.10;78.54;95235.25;4979699;28;19955;-79
2021/12/05 14:42:43;;;;;;;;;;;;;;;4.03;77.49;95251.66;5000316;28;19953;-79
2021/12/05 14:45:14;;;;;;;;;;;;;;;3.99;78.39;95247.06;4988226;28;20418;-80
2021/12/05 14:47:41;;;;;;;;;;;;;;;3.96;78.04;95247.47;4987232;28;19961;-80
2021/12/05 14:50:11;;;;;;;;;;;;;;;3.97;78.67;95249.06;4980029;28;19953;-79
2021/12/05 14:52:40;;;;;;;;;;;;;;;3.93;77.66;95251.28;4984093;28;19952;-79
2021/12/05 14:55:08;;;;;;;;;;;;;;;3.88;78.27;95247.69;4980065;28;19960;-79
2021/12/05 14:57:41;;;;;;;;;;;;;;;3.87;79.47;95246.91;4984076;28;19956;-80
2021/12/05 15:00:10;;;;;;;;;;;;;;;3.91;80.14;95257.69;5002399;28;19954;-80
2021/12/05 15:02:36;;;;;;;;;;;;;;;3.96;79.81;95256.03;4988456;28;19964;-79
2021/12/05 15:05:03;;;;;;;;;;;;;;;3.99;80.01;95252.25;4985551;28;19958;-79
2021/12/05 15:07:29;;;;;;;;;;;;;;;4.01;80.08;95264.03;4980828;28;19973;-79
2021/12/05 15:09:58;;;;;;;;;;;;;;;4.02;79.80;95264.81;4981228;28;20280;-80
2021/12/05 15:12:29;;;;;;;;;;;;;;;4.02;79.62;95268.19;4980140;28;20432;-79
2021/12/05 15:14:56;;;;;;;;;;;;;;;4.02;79.43;95270.00;4983430;28;19969;-79
2021/12/05 15:17:27;;;;;;;;;;;;;;;4.00;79.53;95272.00;5003805;28;19956;-80
2021/12/05 15:19:55;;;;;;;;;;;;;;;3.99;78.87;95275.59;4984513;28;19957;-79
2021/12/05 15:22:21;;;;;;;;;;;;;;;3.99;79.33;95278.19;4980342;28;19965;-80
2021/12/05 15:24:49;;;;;;;;;;;;;;;3.96;79.57;95276.00;4987208;28;19973;-80
2021/12/05 15:27:16;;;;;;;;;;;;;;;3.91;79.97;95279.22;4984873;28;19964;-81
2021/12/05 15:29:46;;;;;;;;;;;;;;;3.88;79.97;95296.97;5004746;28;19959;-80
2021/12/05 15:32:20;;;;;;;;;;;;;;;3.83;79.71;95295.00;4984054;28;20300;-79
2021/12/05 15:34:48;;;;;;;;;;;;;;;3.76;79.99;95305.38;5002036;28;20321;-79
2021/12/05 15:37:14;;;;;;;;;;;;;;;3.72;80.08;95306.00;4984404;28;19957;-80
2021/12/05 15:39:42;;;;;;;;;;;;;;;3.66;80.21;95317.97;4990309;28;19961;-79
2021/12/05 15:42:14;;;;;;;;;;;;;;;3.59;80.49;95315.41;4982682;28;20467;-79
2021/12/05 15:44:40;;;;;;;;;;;;;;;3.55;80.49;95310.78;4982365;28;19960;-79
2021/12/05 15:47:09;;;;;;;;;;;;;;;3.50;80.54;95316.59;5005082;28;20050;-80
2021/12/05 15:49:42;;;;;;;;;;;;;;;3.45;80.64;95319.78;4984158;28;19963;-80
2021/12/05 15:52:08;;;;;;;;;;;;;;;3.39;81.01;95315.41;4977887;28;19953;-80
2021/12/05 15:54:41;;;;;;;;;;;;;;;3.36;81.15;95317.59;5004919;28;19967;-79
2021/12/05 15:57:13;;;;;;;;;;;;;;;3.32;81.14;95319.81;4980550;28;19952;-79
2021/12/05 15:59:42;;;;;;;;;;;;;;;3.29;81.09;95320.19;5004319;28;19951;-79
2021/12/05 16:02:10;;;;;;;;;;;;;;;3.24;80.95;95320.78;4986486;28;19981;-79
2021/12/05 16:04:38;;;;;;;;;;;;;;;3.18;80.95;95316.41;4997636;28;19957;-80
2021/12/05 16:07:08;;;;;;;;;;;;;;;3.13;80.94;95325.75;4998677;28;19984;-80
2021/12/05 16:09:35;;;;;;;;;;;;;;;3.06;80.80;95323.16;5018389;28;19971;-79
2021/12/05 16:12:06;;;;;;;;;;;;;;;3.00;80.80;95324.78;5029177;28;20328;-79
2021/12/05 16:14:35;;;;;;;;;;;;;;;2.93;80.61;95331.72;5020813;28;19959;-79
2021/12/05 16:17:03;;;;;;;;;;;;;;;2.87;80.72;95329.13;5004870;28;19979;-80
2021/12/05 16:19:32;;;;;;;;;;;;;;;2.80;80.85;95337.69;5022422;28;19956;-79
2021/12/05 16:21:59;;;;;;;;;;;;;;;2.74;80.87;95338.47;4989542;28;19947;-79
2021/12/05 16:24:25;;;;;;;;;;;;;;;2.69;80.97;95335.69;5010342;28;19957;-80
2021/12/05 16:26:52;;;;;;;;;;;;;;;2.62;80.84;95333.06;4983385;28;20328;-79
2021/12/05 16:29:19;;;;;;;;;;;;;;;2.57;80.80;95335.44;5004299;28;19958;-80
2021/12/05 16:32:03;;;;;;;;;;;;;;;2.52;80.91;95348.16;5003173;28;19959;-80
2021/12/05 16:34:32;;;;;;;;;;;;;;;2.46;80.73;95345.53;5008314;28;19949;-80
2021/12/05 16:36:58;;;;;;;;;;;;;;;2.38;80.80;95339.56;5024406;28;19978;-80
2021/12/05 16:39:30;;;;;;;;;;;;;;;2.35;80.93;95346.91;5007083;28;19956;-79
2021/12/05 16:41:58;;;;;;;;;;;;;;;2.30;81.12;95346.69;5000132;28;19960;-80
2021/12/05 16:44:25;;;;;;;;;;;;;;;2.24;81.17;95346.44;5021650;28;20322;-79
2021/12/05 16:47:03;;;;;;;;;;;;;;;2.20;81.07;95344.44;5023559;28;20397;-79
2021/12/05 16:49:33;;;;;;;;;;;;;;;2.14;81.05;95353.78;5008518;28;19955;-80
2021/12/05 16:52:01;;;;;;;;;;;;;;;2.09;81.34;95352.75;4988914;28;19959;-80
2021/12/05 16:54:33;;;;;;;;;;;;;;;2.06;81.33;95355.72;5020794;28;20403;-79
2021/12/05 16:57:06;;;;;;;;;;;;;;;2.02;81.39;95356.09;5008301;28;19979;-79
2021/12/05 16:59:47;;;;;;;;;;;;;;;1.98;81.24;95360.06;5026687;28;20427;-79
2021/12/05 17:02:22;;;;;;;;;;;;;;;1.91;81.31;95358.41;5029411;28;19963;-80
2021/12/05 17:05:01;;;;;;;;;;;;;;;1.88;81.49;95364.78;5009732;28;19979;-80
2021/12/05 17:07:47;;;;;;;;;;;;;;;1.83;81.46;95360.19;5021390;28;20450;-79
2021/12/05 17:10:19;;;;;;;;;;;;;;;1.78;81.56;95362.53;5025872;28;19975;-79
2021/12/05 17:12:46;;;;;;;;;;;;;;;1.75;81.39;95359.53;5009990;28;19961;-80
2021/12/05 17:15:27;;;;;;;;;;;;;;;1.72;81.42;95362.47;5010255;28;20281;-79
2021/12/05 17:18:01;;;;;;;;;;;;;;;1.68;81.78;95369.84;4989981;28;20418;-79
2021/12/05 17:20:32;;;;;;;;;;;;;;;1.66;81.69;95363.22;5021050;28;19962;-79
2021/12/05 17:23:02;;;;;;;;;;;;;;;1.64;81.96;95366.03;5008431;28;19955;-79
2021/12/05 17:25:33;;;;;;;;;;;;;;;1.61;81.93;95369.75;5017222;28;20431;-80
2021/12/05 17:28:00;;;;;;;;;;;;;;;1.57;81.70;95370.34;5019415;28;19965;-80
2021/12/05 17:30:26;;;;;;;;;;;;;;;1.53;81.75;95375.06;5020999;28;19972;-79
2021/12/05 17:32:53;;;;;;;;;;;;;;;1.50;81.87;95383.22;5010113;28;19958;-79
2021/12/05 17:35:19;;;;;;;;;;;;;;;1.48;82.21;95382.59;5017880;28;20039;-79
2021/12/05 17:37:46;;;;;;;;;;;;;;;1.46;82.28;95376.81;4998622;28;20425;-80
2021/12/05 17:40:13;;;;;;;;;;;;;;;1.44;82.54;95389.13;5019962;28;19961;-79
2021/12/05 17:42:41;;;;;;;;;;;;;;;1.44;82.58;95383.94;5004787;28;19959;-79
2021/12/05 17:45:08;;;;;;;;;;;;;;;1.42;82.96;95391.09;5003954;28;20305;-78
2021/12/05 17:47:34;;;;;;;;;;;;;;;1.40;82.66;95393.84;5021670;28;19962;-79
2021/12/05 17:50:04;;;;;;;;;;;;;;;1.37;82.32;95396.81;5006226;28;19958;-78
2021/12/05 17:52:31;;;;;;;;;;;;;;;1.33;82.48;95393.00;5014657;28;19961;-78
2021/12/05 17:55:05;;;;;;;;;;;;;;;1.31;82.53;95394.97;5010664;28;20421;-78
2021/12/05 17:57:59;;;;;;;;;;;;;;;1.28;82.69;95395.38;5031785;28;19970;-79
2021/12/05 18:00:33;;;;;;;;;;;;;;;1.27;82.58;95400.72;5023683;28;20360;-78
2021/12/05 18:03:01;;;;;;;;;;;;;;;1.23;82.74;95402.84;5008343;28;19970;-78
2021/12/05 18:05:34;;;;;;;;;;;;;;;1.20;82.80;95411.78;5007648;28;19948;-79
2021/12/05 18:08:02;;;;;;;;;;;;;;;1.16;83.03;95399.41;5012192;28;19984;-79
2021/12/05 18:10:30;;;;;;;;;;;;;;;1.15;82.73;95408.13;4985788;28;19961;-78
2021/12/05 18:12:59;;;;;;;;;;;;;;;1.14;82.87;95411.72;5031102;28;19961;-79
2021/12/05 18:15:28;;;;;;;;;;;;;;;1.12;82.89;95418.84;5024899;28;19952;-79
2021/12/05 18:17:56;;;;;;;;;;;;;;;1.09;82.94;95414.84;5005918;28;20443;-78
2021/12/05 18:20:25;;;;;;;;;;;;;;;1.08;83.05;95418.41;5008423;28;19956;-78